CSAPA EDFM-EDFE
Flight info
| Callsign | CSAPA |
|---|---|
| Flight time | 0h 20m |
| Altitude | 1400 |
| Route | EDFM/27 RROUTE ROMEO DCT HEMSB A5 DROUTE EDFE |
| Aircraft | C152/L-V/N |
Departure
| Time | 2026-04-27 16:53 |
|---|---|
| Airport | Mannheim-City Airport (EDFM) |
Arrival
| Time | 2026-04-27 17:13 |
|---|---|
| Airport | Frankfurt-Egelsbach Airport (EDFE) |
| Time | Latitude | Longitude | Altitude | Speed | Heading |
|---|---|---|---|---|---|
| 2026-04-27 16:42 | 49.47512 | 8.51746 | 312 ft | 0 kts | 183° |
| 2026-04-27 16:46 | 49.47509 | 8.51747 | 312 ft | 2 kts | 159° |
| 2026-04-27 16:47 | 49.47507 | 8.51774 | 312 ft | 5 kts | 90° |
| 2026-04-27 16:47 | 49.47506 | 8.51836 | 312 ft | 6 kts | 91° |
| 2026-04-27 16:47 | 49.47498 | 8.51873 | 312 ft | 4 kts | 139° |
| 2026-04-27 16:47 | 49.47464 | 8.51967 | 312 ft | 16 kts | 97° |
| 2026-04-27 16:48 | 49.47460 | 8.52051 | 312 ft | 0 kts | 94° |
| 2026-04-27 16:48 | 49.47458 | 8.52082 | 312 ft | 4 kts | 93° |
| 2026-04-27 16:48 | 49.47465 | 8.52122 | 312 ft | 4 kts | 37° |
| 2026-04-27 16:49 | 49.47539 | 8.52158 | 312 ft | 4 kts | 100° |
| 2026-04-27 16:49 | 49.47521 | 8.52166 | 312 ft | 7 kts | 184° |
| 2026-04-27 16:49 | 49.47473 | 8.52161 | 312 ft | 7 kts | 184° |
| 2026-04-27 16:49 | 49.47425 | 8.52161 | 312 ft | 7 kts | 182° |
| 2026-04-27 16:50 | 49.47377 | 8.52158 | 312 ft | 7 kts | 182° |
| 2026-04-27 16:50 | 49.47339 | 8.52155 | 312 ft | 0 kts | 183° |
| 2026-04-27 16:50 | 49.47315 | 8.52153 | 312 ft | 4 kts | 183° |
| 2026-04-27 16:51 | 49.47307 | 8.52152 | 312 ft | 0 kts | 183° |
| 2026-04-27 16:51 | 49.47296 | 8.52151 | 312 ft | 6 kts | 183° |
| 2026-04-27 16:51 | 49.47251 | 8.52121 | 312 ft | 8 kts | 246° |
| 2026-04-27 16:52 | 49.47252 | 8.51878 | 313 ft | 48 kts | 274° |
| 2026-04-27 16:52 | 49.47281 | 8.51216 | 450 ft | 63 kts | 273° |
| 2026-04-27 16:52 | 49.47312 | 8.50567 | 675 ft | 63 kts | 270° |
| 2026-04-27 16:52 | 49.47319 | 8.49833 | 800 ft | 79 kts | 273° |
| 2026-04-27 16:53 | 49.47437 | 8.49023 | 1039 ft | 73 kts | 288° |
| 2026-04-27 16:53 | 49.47738 | 8.48357 | 1171 ft | 81 kts | 311° |
| 2026-04-27 16:53 | 49.48161 | 8.47809 | 1366 ft | 79 kts | 317° |
| 2026-04-27 16:53 | 49.48628 | 8.47269 | 1419 ft | 88 kts | 319° |
| 2026-04-27 16:54 | 49.49111 | 8.46665 | 1436 ft | 94 kts | 315° |
| 2026-04-27 16:54 | 49.49611 | 8.45987 | 1429 ft | 97 kts | 316° |
| 2026-04-27 16:54 | 49.50180 | 8.45419 | 1460 ft | 98 kts | 329° |
| 2026-04-27 16:54 | 49.50837 | 8.44993 | 1382 ft | 106 kts | 335° |
| 2026-04-27 16:55 | 49.51526 | 8.44594 | 1329 ft | 106 kts | 335° |
| 2026-04-27 16:55 | 49.52208 | 8.44186 | 1292 ft | 103 kts | 334° |
| 2026-04-27 16:55 | 49.52861 | 8.43764 | 1268 ft | 103 kts | 332° |
| 2026-04-27 16:55 | 49.53512 | 8.43338 | 1297 ft | 101 kts | 333° |
| 2026-04-27 16:56 | 49.54164 | 8.42901 | 1302 ft | 103 kts | 332° |
| 2026-04-27 16:56 | 49.54824 | 8.42459 | 1307 ft | 103 kts | 334° |
| 2026-04-27 16:56 | 49.55529 | 8.42174 | 1288 ft | 106 kts | 350° |
| 2026-04-27 16:56 | 49.56291 | 8.42310 | 1232 ft | 114 kts | 13° |
| 2026-04-27 16:57 | 49.56995 | 8.42837 | 1289 ft | 110 kts | 27° |
| 2026-04-27 16:57 | 49.57646 | 8.43441 | 1351 ft | 110 kts | 28° |
| 2026-04-27 16:57 | 49.58221 | 8.44243 | 1375 ft | 110 kts | 49° |
| 2026-04-27 16:57 | 49.58698 | 8.45131 | 1434 ft | 106 kts | 48° |
| 2026-04-27 16:58 | 49.59150 | 8.46042 | 1439 ft | 109 kts | 56° |
| 2026-04-27 16:58 | 49.59546 | 8.47063 | 1426 ft | 110 kts | 58° |
| 2026-04-27 16:58 | 49.59918 | 8.48098 | 1406 ft | 113 kts | 60° |
| 2026-04-27 16:58 | 49.60306 | 8.49158 | 1385 ft | 112 kts | 58° |
| 2026-04-27 16:59 | 49.60704 | 8.50194 | 1359 ft | 114 kts | 58° |
| 2026-04-27 16:59 | 49.61091 | 8.51263 | 1336 ft | 113 kts | 59° |
| 2026-04-27 16:59 | 49.61467 | 8.52310 | 1356 ft | 111 kts | 59° |
| 2026-04-27 16:59 | 49.61843 | 8.53356 | 1344 ft | 112 kts | 60° |
| 2026-04-27 17:00 | 49.62444 | 8.55107 | 1354 ft | 111 kts | 61° |
| 2026-04-27 17:00 | 49.62905 | 8.56510 | 1343 ft | 112 kts | 62° |
| 2026-04-27 17:00 | 49.63252 | 8.57579 | 1352 ft | 110 kts | 62° |
| 2026-04-27 17:01 | 49.63594 | 8.58638 | 1363 ft | 110 kts | 61° |
| 2026-04-27 17:01 | 49.64047 | 8.59583 | 1359 ft | 110 kts | 42° |
| 2026-04-27 17:01 | 49.64656 | 8.60269 | 1365 ft | 108 kts | 25° |
| 2026-04-27 17:01 | 49.65351 | 8.60662 | 1365 ft | 106 kts | 7° |
| 2026-04-27 17:02 | 49.66075 | 8.60650 | 1356 ft | 103 kts | 348° |
| 2026-04-27 17:02 | 49.66785 | 8.60523 | 1367 ft | 103 kts | 349° |
| 2026-04-27 17:02 | 49.67503 | 8.60420 | 1362 ft | 104 kts | 351° |
| 2026-04-27 17:02 | 49.68222 | 8.60321 | 1371 ft | 103 kts | 350° |
| 2026-04-27 17:03 | 49.68934 | 8.60198 | 1371 ft | 103 kts | 348° |
| 2026-04-27 17:03 | 49.69648 | 8.60077 | 1370 ft | 103 kts | 350° |
| 2026-04-27 17:03 | 49.70356 | 8.59964 | 1374 ft | 103 kts | 349° |
| 2026-04-27 17:03 | 49.71077 | 8.59821 | 1377 ft | 103 kts | 347° |
| 2026-04-27 17:04 | 49.71767 | 8.59617 | 1379 ft | 102 kts | 343° |
| 2026-04-27 17:04 | 49.72474 | 8.59438 | 1369 ft | 104 kts | 349° |
| 2026-04-27 17:04 | 49.73202 | 8.59397 | 1367 ft | 105 kts | 357° |
| 2026-04-27 17:04 | 49.73929 | 8.59478 | 1369 ft | 105 kts | 2° |
| 2026-04-27 17:05 | 49.74656 | 8.59656 | 1364 ft | 106 kts | 6° |
| 2026-04-27 17:05 | 49.75380 | 8.59902 | 1365 ft | 106 kts | 8° |
| 2026-04-27 17:05 | 49.76101 | 8.60121 | 1372 ft | 105 kts | 6° |
| 2026-04-27 17:05 | 49.76591 | 8.60251 | 1373 ft | 106 kts | 5° |
| 2026-04-27 17:06 | 49.77547 | 8.60533 | 1364 ft | 108 kts | 14° |
| 2026-04-27 17:06 | 49.78257 | 8.60942 | 1360 ft | 107 kts | 18° |
| 2026-04-27 17:06 | 49.78942 | 8.61370 | 1376 ft | 107 kts | 19° |
| 2026-04-27 17:06 | 49.79631 | 8.61831 | 1363 ft | 108 kts | 20° |
| 2026-04-27 17:07 | 49.80314 | 8.62309 | 1374 ft | 107 kts | 21° |
| 2026-04-27 17:07 | 49.81005 | 8.62750 | 1378 ft | 107 kts | 15° |
| 2026-04-27 17:07 | 49.81714 | 8.63067 | 1379 ft | 106 kts | 9° |
| 2026-04-27 17:07 | 49.82441 | 8.63235 | 1379 ft | 105 kts | 359° |
| 2026-04-27 17:08 | 49.83153 | 8.63178 | 1379 ft | 103 kts | 346° |
| 2026-04-27 17:08 | 49.83833 | 8.62824 | 1376 ft | 101 kts | 328° |
| 2026-04-27 17:08 | 49.84395 | 8.62204 | 1380 ft | 99 kts | 313° |
| 2026-04-27 17:08 | 49.84854 | 8.61421 | 1381 ft | 98 kts | 306° |
| 2026-04-27 17:09 | 49.85289 | 8.60607 | 1370 ft | 99 kts | 311° |
| 2026-04-27 17:09 | 49.85905 | 8.60051 | 1289 ft | 108 kts | 341° |
| 2026-04-27 17:09 | 49.86644 | 8.60049 | 1277 ft | 105 kts | 4° |
| 2026-04-27 17:09 | 49.87365 | 8.60237 | 1270 ft | 107 kts | 6° |
| 2026-04-27 17:10 | 49.88091 | 8.60429 | 1297 ft | 105 kts | 5° |
| 2026-04-27 17:10 | 49.88812 | 8.60599 | 1329 ft | 106 kts | 4° |
| 2026-04-27 17:10 | 49.89544 | 8.60784 | 1364 ft | 106 kts | 5° |
| 2026-04-27 17:10 | 49.90269 | 8.60964 | 1411 ft | 106 kts | 4° |
| 2026-04-27 17:11 | 49.90998 | 8.61148 | 1442 ft | 107 kts | 6° |
| 2026-04-27 17:11 | 49.92445 | 8.61514 | 1441 ft | 104 kts | 1° |
| 2026-04-27 17:11 | 49.93156 | 8.61515 | 1345 ft | 97 kts | 351° |
| 2026-04-27 17:12 | 49.94384 | 8.61377 | 1059 ft | 82 kts | 350° |
| 2026-04-27 17:12 | 49.94898 | 8.61319 | 963 ft | 73 kts | 349° |
| 2026-04-27 17:12 | 49.95409 | 8.61398 | 873 ft | 77 kts | 19° |
| 2026-04-27 17:13 | 49.95824 | 8.61907 | 697 ft | 79 kts | 53° |
| 2026-04-27 17:13 | 49.96016 | 8.62716 | 484 ft | 80 kts | 75° |
| 2026-04-27 17:13 | 49.96056 | 8.63510 | 389 ft | 64 kts | 88° |
| 2026-04-27 17:13 | 49.96075 | 8.63989 | 388 ft | 23 kts | 85° |
| 2026-04-27 17:14 | 49.96083 | 8.64179 | 388 ft | 13 kts | 87° |
| 2026-04-27 17:14 | 49.96087 | 8.64262 | 388 ft | 4 kts | 85° |
| 2026-04-27 17:14 | 49.96091 | 8.64339 | 388 ft | 14 kts | 86° |
| 2026-04-27 17:14 | 49.96103 | 8.64523 | 388 ft | 8 kts | 56° |
| 2026-04-27 17:15 | 49.96162 | 8.64558 | 388 ft | 13 kts | 19° |
| 2026-04-27 17:15 | 49.96216 | 8.64524 | 388 ft | 11 kts | 291° |
| 2026-04-27 17:15 | 49.96245 | 8.64474 | 388 ft | 5 kts | 360° |
| 2026-04-27 17:15 | 49.96303 | 8.64469 | 388 ft | 13 kts | 356° |
| 2026-04-27 17:16 | 49.96387 | 8.64459 | 388 ft | 9 kts | 16° |
| 2026-04-27 17:16 | 49.96394 | 8.64497 | 388 ft | 3 kts | 91° |
| 2026-04-27 17:16 | 49.96392 | 8.64535 | 388 ft | 4 kts | 117° |
| 2026-04-27 17:16 | 49.96367 | 8.64569 | 388 ft | 8 kts | 169° |
| 2026-04-27 17:17 | 49.96314 | 8.64562 | 388 ft | 4 kts | 251° |
| 2026-04-27 17:17 | 49.96312 | 8.64546 | 388 ft | 0 kts | 261° |
| 2026-04-27 17:18 | 49.96312 | 8.64545 | 388 ft | 0 kts | 261° |
| 2026-04-27 17:21 | 49.96312 | 8.64544 | 388 ft | 0 kts | 261° |